Time;durP1;ratioP1;P1;durP2;ratioP2;P2;SDS_P1;SDS_P2;PMS_P1;PMS_P2;Temp;Humidity;BMP_temperature;BMP_pressure;BME280_temperature;BME280_humidity;BME280_pressure;Samples;Min_cycle;Max_cycle;Signal;HPM_P1;HPM_P2
2023/10/16 00:00:29;;;;;;;;;;;;;;;19.20;62.07;98921.59;309294;31;2094;-79
2023/10/16 00:00:33;;;;;;;;;;;;;;;19.21;62.16;98920.63;304302;32;2772;-79
2023/10/16 00:00:45;;;;;;;;;;;;;;;19.21;61.94;98914.50;304063;32;2188;-79
2023/10/16 00:00:55;;;;;;;;;;;;;;;19.22;62.06;98922.31;303955;32;3235;-78
2023/10/16 00:01:11;;;;;;;;;;;;;;;19.22;61.83;98921.47;304353;31;3185;-78
2023/10/16 00:01:22;;;;;;;;;;;;;;;19.20;61.98;98918.13;303632;32;3646;-78
2023/10/16 00:01:32;;;;;;;;;;;;;;;19.21;62.03;98917.13;304293;32;1308;-79
2023/10/16 00:01:43;;;;;;;;;;;;;;;19.19;62.16;98921.75;306993;32;3330;-79
2023/10/16 00:01:54;;;;;;;;;;;;;;;19.19;62.10;98921.75;306503;31;2360;-79
2023/10/16 00:02:05;;;;;;;;;;;;;;;19.19;62.07;98916.44;305107;32;2232;-79
2023/10/16 00:02:16;;;;;;;;;;;;;;;19.19;61.85;98917.28;307375;32;1273;-79
2023/10/16 00:02:27;;;;;;;;;;;;;;;19.19;61.91;98924.38;305756;32;3856;-79
2023/10/16 00:02:37;;;;;;;;;;;;;;;19.20;61.73;98921.59;302859;32;4563;-78
2023/10/16 00:02:48;;;;;;;;;;;;;;;19.20;61.69;98926.91;301230;32;937;-78
2023/10/16 00:03:02;;;;;;;;;;;;;;;19.19;61.86;98932.34;295042;33;1311;-78
2023/10/16 00:03:12;;;;;;;;;;;;;;;19.19;61.97;98932.34;293327;33;4552;-78
2023/10/16 00:03:23;;;;;;;;;;;;;;;19.19;62.08;98927.03;293882;33;4604;-78
2023/10/16 00:03:33;;;;;;;;;;;;;;;19.19;61.82;98929.69;293415;33;4727;-79
2023/10/16 00:03:44;;;;;;;;;;;;;;;19.21;61.63;98931.25;293578;33;1262;-79
2023/10/16 00:03:57;;;;;;;;;;;;;;;19.20;61.80;98921.59;292212;33;4318;-78
2023/10/16 00:04:07;;;;;;;;;;;;;;;19.21;61.70;98931.25;290966;33;2739;-78
2023/10/16 00:04:18;;;;;;;;;;;;;;;19.22;61.47;98929.44;290753;33;2464;-78
2023/10/16 00:04:29;;;;;;;;;;;;;;;19.22;61.30;98926.78;287117;34;3480;-78
2023/10/16 00:04:43;;;;;;;;;;;;;;;19.19;61.36;98930.53;286268;34;5427;-78
2023/10/16 00:04:54;;;;;;;;;;;;;;;19.19;61.29;98932.34;282953;34;6177;-78
2023/10/16 00:05:08;;;;;;;;;;;;;;;19.18;61.32;98934.16;282602;34;6228;-78
2023/10/16 00:05:18;;;;;;;;;;;;;;;19.19;61.55;98935.00;280597;34;5651;-78
2023/10/16 00:05:33;;;;;;;;;;;;;;;19.19;61.34;98935.84;282677;35;1120;-78
2023/10/16 00:05:49;;;;;;;;;;;;;;;19.19;61.35;98933.19;280989;35;875;-78
2023/10/16 00:05:59;;;;;;;;;;;;;;;19.19;61.27;98932.34;279217;35;816;-78
2023/10/16 00:06:11;;;;;;;;;;;;;;;19.17;61.45;98944.91;274531;35;6090;-79
2023/10/16 00:06:22;;;;;;;;;;;;;;;19.16;61.42;98927.31;271947;35;3971;-78
2023/10/16 00:06:33;;;;;;;;;;;;;;;19.15;61.21;98937.09;271190;36;1361;-78
2023/10/16 00:06:49;;;;;;;;;;;;;;;19.16;61.06;98936.09;269827;36;1253;-78
2023/10/16 00:07:00;;;;;;;;;;;;;;;19.14;61.22;98935.41;268035;36;1327;-79
2023/10/16 00:07:12;;;;;;;;;;;;;;;19.12;61.56;98942.66;268940;36;8314;-78
2023/10/16 00:07:22;;;;;;;;;;;;;;;19.13;61.20;98935.53;268877;36;9670;-78
2023/10/16 00:07:33;;;;;;;;;;;;;;;19.12;61.18;98931.19;268116;36;853;-78
2023/10/16 00:07:44;;;;;;;;;;;;;;;19.13;61.20;98938.19;266439;37;1463;-78
2023/10/16 00:09:40;;;;;;;;;;;;;;;19.11;60.85;98926.88;2494940;27;19933;-78
2023/10/16 00:09:53;;;;;;;;;;;;;;;19.08;60.72;98935.09;352995;28;1406;-78
2023/10/16 00:10:11;;;;;;;;;;;;;;;19.03;60.94;98932.03;350441;28;1269;-78
2023/10/16 00:10:21;;;;;;;;;;;;;;;19.01;60.96;98939.28;349116;28;868;-78
2023/10/16 00:10:35;;;;;;;;;;;;;;;19.01;60.86;98944.56;347523;28;1204;-78
2023/10/16 00:10:57;;;;;;;;;;;;;;;18.99;60.83;98938.56;349133;28;1300;-78
2023/10/16 00:11:08;;;;;;;;;;;;;;;19.02;60.74;98940.94;350336;28;903;-78
2023/10/16 00:11:19;;;;;;;;;;;;;;;19.02;60.94;98946.25;351582;28;1216;-78
2023/10/16 00:11:30;;;;;;;;;;;;;;;19.03;60.61;98937.31;350408;28;1209;-78
2023/10/16 00:11:40;;;;;;;;;;;;;;;19.02;60.74;98940.94;350368;28;1278;-78
2023/10/16 00:11:50;;;;;;;;;;;;;;;19.03;60.89;98947.94;348887;28;1331;-78
2023/10/16 00:12:02;;;;;;;;;;;;;;;19.03;60.48;98938.16;350128;28;1230;-78
2023/10/16 00:12:12;;;;;;;;;;;;;;;19.02;60.47;98933.00;348800;28;1481;-78
2023/10/16 00:12:22;;;;;;;;;;;;;;;19.02;60.59;98940.94;347569;28;1224;-78
2023/10/16 00:12:33;;;;;;;;;;;;;;;19.01;60.63;98944.56;347653;28;1236;-78
2023/10/16 00:12:43;;;;;;;;;;;;;;;18.97;60.79;98937.84;349169;28;737;-78
2023/10/16 00:12:53;;;;;;;;;;;;;;;18.92;60.83;98931.13;351515;28;1315;-78
2023/10/16 00:13:04;;;;;;;;;;;;;;;18.92;60.68;98941.75;353172;28;934;-78
2023/10/16 00:13:23;;;;;;;;;;;;;;;18.92;60.78;98947.03;351710;28;866;-78
2023/10/16 00:13:38;;;;;;;;;;;;;;;18.92;60.90;98947.03;346562;28;2316;-78
2023/10/16 00:13:49;;;;;;;;;;;;;;;18.94;60.63;98939.81;346620;28;4072;-77
2023/10/16 00:14:00;;;;;;;;;;;;;;;18.96;60.72;98952.09;348992;28;2168;-78
2023/10/16 00:14:44;;;;;;;;;;;;;;;18.96;60.60;98947.63;347962;28;2478;-78
2023/10/16 00:14:47;;;;;;;;;;;;;;;18.96;60.48;98941.47;346325;28;1108;-79
2023/10/16 00:14:59;;;;;;;;;;;;;;;18.97;60.61;98937.84;347500;28;1207;-78
2023/10/16 00:15:09;;;;;;;;;;;;;;;18.96;60.62;98946.78;345080;28;852;-79
2023/10/16 00:15:20;;;;;;;;;;;;;;;18.93;60.81;98943.41;341420;28;1448;-79
2023/10/16 00:15:49;;;;;;;;;;;;;;;18.93;60.46;98935.47;340621;28;1331;-79
2023/10/16 00:16:02;;;;;;;;;;;;;;;18.91;60.71;98948.03;337985;29;1275;-79
2023/10/16 00:16:15;;;;;;;;;;;;;;;18.91;60.77;98945.38;336961;29;831;-77
2023/10/16 00:16:28;;;;;;;;;;;;;;;18.93;60.82;98942.59;338164;29;1266;-78
2023/10/16 00:16:39;;;;;;;;;;;;;;;18.93;60.91;98950.53;339563;29;1397;-79
2023/10/16 00:16:50;;;;;;;;;;;;;;;18.92;60.88;98949.69;339705;29;861;-78
2023/10/16 00:17:00;;;;;;;;;;;;;;;18.94;60.74;98946.91;339505;29;1270;-78
2023/10/16 00:17:13;;;;;;;;;;;;;;;18.92;60.86;98948.84;342109;28;1263;-78
2023/10/16 00:17:24;;;;;;;;;;;;;;;18.93;60.76;98947.88;340953;28;1160;-78
2023/10/16 00:17:34;;;;;;;;;;;;;;;18.91;60.82;98944.53;340056;29;1140;-78
2023/10/16 00:17:44;;;;;;;;;;;;;;;18.91;60.75;98955.97;340771;28;1243;-78
2023/10/16 00:17:57;;;;;;;;;;;;;;;18.90;60.89;98946.34;339528;29;1000;-78
2023/10/16 00:18:13;;;;;;;;;;;;;;;18.91;60.89;98950.66;343976;28;1162;-78
2023/10/16 00:18:23;;;;;;;;;;;;;;;18.93;60.79;98951.38;341068;28;1308;-78
2023/10/16 00:18:34;;;;;;;;;;;;;;;18.91;61.00;98950.66;342148;28;1911;-78
2023/10/16 00:18:47;;;;;;;;;;;;;;;18.91;60.92;98950.66;339507;29;1239;-78
2023/10/16 00:18:59;;;;;;;;;;;;;;;18.90;60.77;98951.63;339925;29;1097;-78
2023/10/16 00:19:09;;;;;;;;;;;;;;;18.92;60.89;98952.34;339576;29;1238;-78
2023/10/16 00:19:19;;;;;;;;;;;;;;;18.92;60.80;98951.50;342097;28;1362;-78
2023/10/16 00:19:33;;;;;;;;;;;;;;;18.89;61.07;98951.78;342153;28;1220;-78
2023/10/16 00:19:44;;;;;;;;;;;;;;;18.88;61.33;98955.38;338058;29;1768;-79
2023/10/16 00:19:55;;;;;;;;;;;;;;;18.86;61.40;98958.16;335572;29;1408;-78
2023/10/16 00:20:16;;;;;;;;;;;;;;;18.89;61.27;98951.78;335590;29;1890;-79
2023/10/16 00:20:26;;;;;;;;;;;;;;;18.92;60.99;98957.66;328208;30;1344;-78
2023/10/16 00:20:36;;;;;;;;;;;;;;;18.91;60.73;98961.28;324717;30;2181;-78
2023/10/16 00:20:47;;;;;;;;;;;;;;;18.91;60.81;98966.56;325021;29;1768;-78
2023/10/16 00:20:57;;;;;;;;;;;;;;;18.91;60.90;98971.88;324467;30;1359;-79
2023/10/16 00:21:07;;;;;;;;;;;;;;;18.90;60.86;98964.06;329040;30;1314;-79
2023/10/16 00:21:18;;;;;;;;;;;;;;;18.90;60.64;98959.59;331870;29;1497;-78
2023/10/16 00:21:30;;;;;;;;;;;;;;;18.89;60.71;98960.56;331932;29;942;-78
2023/10/16 00:21:43;;;;;;;;;;;;;;;18.88;60.83;98960.69;324525;30;1386;-78
2023/10/16 00:21:57;;;;;;;;;;;;;;;18.88;60.99;98961.53;323345;30;1282;-78
2023/10/16 00:22:13;;;;;;;;;;;;;;;18.86;60.56;98958.16;321520;30;2261;-78
2023/10/16 00:22:25;;;;;;;;;;;;;;;18.84;60.67;98965.41;316297;31;1374;-79
2023/10/16 00:22:36;;;;;;;;;;;;;;;18.81;60.57;98963.03;317719;31;2641;-78
2023/10/16 00:22:46;;;;;;;;;;;;;;;18.78;60.67;98962.44;312799;31;2909;-78
2023/10/16 00:22:56;;;;;;;;;;;;;;;18.79;60.62;98967.63;312113;31;3561;-78
2023/10/16 00:23:10;;;;;;;;;;;;;;;18.79;60.72;98967.63;314388;31;2569;-78
2023/10/16 00:23:24;;;;;;;;;;;;;;;18.80;60.44;98960.50;313442;31;2255;-78
2023/10/16 00:23:40;;;;;;;;;;;;;;;18.80;60.31;98971.94;313008;31;2021;-78
2023/10/16 00:23:51;;;;;;;;;;;;;;;18.78;60.39;98968.59;311797;31;2468;-78
2023/10/16 00:24:01;;;;;;;;;;;;;;;18.80;60.35;98968.47;312043;31;2629;-78
2023/10/16 00:24:11;;;;;;;;;;;;;;;18.82;60.46;98970.00;311835;31;1541;-78
2023/10/16 00:24:22;;;;;;;;;;;;;;;18.84;60.32;98962.75;309095;31;2947;-78
2023/10/16 00:24:32;;;;;;;;;;;;;;;18.81;60.40;98968.31;309285;31;3071;-78
2023/10/16 00:24:46;;;;;;;;;;;;;;;18.83;60.45;98969.03;308619;32;1253;-78
2023/10/16 00:24:58;;;;;;;;;;;;;;;18.84;60.48;98969.88;307327;32;1172;-78
2023/10/16 00:25:08;;;;;;;;;;;;;;;18.82;60.52;98974.47;303170;32;1291;-78
2023/10/16 00:25:24;;;;;;;;;;;;;;;18.81;60.51;98970.13;304476;32;2572;-79
2023/10/16 00:25:38;;;;;;;;;;;;;;;18.78;60.60;98965.94;303849;32;2096;-78
2023/10/16 00:25:50;;;;;;;;;;;;;;;18.76;60.54;98961.72;301128;32;2992;-78
2023/10/16 00:26:00;;;;;;;;;;;;;;;18.73;60.59;98975.25;296871;32;3880;-78
2023/10/16 00:26:13;;;;;;;;;;;;;;;18.70;60.38;98971.03;299112;33;1260;-78
2023/10/16 00:26:23;;;;;;;;;;;;;;;18.70;60.79;98970.19;292218;33;4071;-78
2023/10/16 00:26:33;;;;;;;;;;;;;;;18.71;60.60;98975.38;291669;33;4512;-79
2023/10/16 00:26:50;;;;;;;;;;;;;;;18.72;60.54;98962.97;292519;33;4497;-78
2023/10/16 00:27:00;;;;;;;;;;;;;;;18.71;60.59;98975.38;296246;32;4201;-78
2023/10/16 00:27:14;;;;;;;;;;;;;;;18.68;60.61;98962.38;297131;33;1399;-78
2023/10/16 00:27:24;;;;;;;;;;;;;;;18.65;60.56;98965.28;292090;33;1404;-78
2023/10/16 00:27:35;;;;;;;;;;;;;;;18.63;60.50;98971.72;291557;33;3821;-78
2023/10/16 00:27:45;;;;;;;;;;;;;;;18.63;60.66;98977.81;291017;33;3478;-78
2023/10/16 00:27:55;;;;;;;;;;;;;;;18.63;60.72;98969.06;288359;34;861;-77
2023/10/16 00:28:08;;;;;;;;;;;;;;;18.62;60.46;98965.56;287292;34;4766;-78
2023/10/16 00:28:21;;;;;;;;;;;;;;;18.63;60.59;98974.38;288023;34;5600;-78
2023/10/16 00:28:32;;;;;;;;;;;;;;;18.63;60.45;98967.22;289766;33;6411;-79
2023/10/16 00:28:45;;;;;;;;;;;;;;;18.63;60.59;98975.19;293281;33;839;-78
2023/10/16 00:29:17;;;;;;;;;;;;;;;18.65;60.60;98975.88;288320;34;1118;-79
2023/10/16 00:29:35;;;;;;;;;;;;;;;18.68;60.59;98980.09;284633;34;862;-78
2023/10/16 00:29:45;;;;;;;;;;;;;;;18.69;60.45;98977.31;279322;35;5246;-78
2023/10/16 00:29:55;;;;;;;;;;;;;;;18.68;60.61;98980.94;280020;35;942;-79
2023/10/16 00:30:08;;;;;;;;;;;;;;;18.68;60.50;98974.78;277423;35;6017;-79
2023/10/16 00:30:18;;;;;;;;;;;;;;;18.67;60.42;98978.41;277050;35;6833;-79
2023/10/16 00:30:31;;;;;;;;;;;;;;;18.65;60.45;98975.88;277773;35;6543;-79
2023/10/16 00:30:41;;;;;;;;;;;;;;;18.66;60.62;98977.56;275652;35;1184;-79
2023/10/16 00:30:52;;;;;;;;;;;;;;;18.67;60.46;98973.94;271856;35;9043;-79
2023/10/16 00:31:03;;;;;;;;;;;;;;;18.68;60.49;98980.94;271584;35;10208;-79
2023/10/16 00:31:22;;;;;;;;;;;;;;;18.69;60.60;98973.81;272582;36;6330;-79
2023/10/16 00:31:32;;;;;;;;;;;;;;;18.70;60.48;98976.34;268168;36;7977;-78
2023/10/16 00:33:20;;;;;;;;;;;;;;;18.69;60.50;98981.78;2493367;27;19937;-78
2023/10/16 00:33:33;;;;;;;;;;;;;;;18.69;60.31;98985.28;353125;28;1300;-78
2023/10/16 00:33:43;;;;;;;;;;;;;;;18.68;60.22;98991.53;350396;28;1287;-78
2023/10/16 00:33:53;;;;;;;;;;;;;;;18.67;60.21;98994.31;348959;28;800;-78
2023/10/16 00:34:04;;;;;;;;;;;;;;;18.62;60.18;99004.50;348129;28;1122;-77
2023/10/16 00:34:19;;;;;;;;;;;;;;;18.63;60.25;98988.44;348848;28;1295;-78
2023/10/16 00:34:30;;;;;;;;;;;;;;;18.59;60.21;98993.16;350424;28;1278;-78
2023/10/16 00:34:40;;;;;;;;;;;;;;;18.56;60.19;98992.56;350385;28;865;-78
2023/10/16 00:34:52;;;;;;;;;;;;;;;18.55;60.17;98993.53;350485;28;803;-78
2023/10/16 00:35:03;;;;;;;;;;;;;;;18.55;60.13;98998.84;350255;28;839;-78
2023/10/16 00:35:15;;;;;;;;;;;;;;;18.56;60.19;99003.16;348889;28;1238;-78
2023/10/16 00:35:25;;;;;;;;;;;;;;;18.55;60.15;98999.66;350297;28;800;-78
2023/10/16 00:35:37;;;;;;;;;;;;;;;18.52;59.90;98991.97;350340;28;1238;-78
2023/10/16 00:35:48;;;;;;;;;;;;;;;18.50;59.89;98993.06;349059;28;1021;-78
2023/10/16 00:36:00;;;;;;;;;;;;;;;18.51;60.02;98997.41;348854;28;973;-78
2023/10/16 00:36:10;;;;;;;;;;;;;;;18.49;59.89;99002.00;348935;28;872;-77
2023/10/16 00:36:20;;;;;;;;;;;;;;;18.50;59.79;98993.06;349067;28;903;-77
2023/10/16 00:36:30;;;;;;;;;;;;;;;18.50;59.84;98987.78;347617;28;1302;-78
2023/10/16 00:36:41;;;;;;;;;;;;;;;18.50;59.80;98995.72;346675;28;1433;-78
2023/10/16 00:36:54;;;;;;;;;;;;;;;18.46;59.89;98996.94;350308;28;1050;-78
2023/10/16 00:37:04;;;;;;;;;;;;;;;18.46;59.71;98994.28;348861;28;1247;-77
2023/10/16 00:37:14;;;;;;;;;;;;;;;18.42;59.90;98996.34;350177;28;1251;-78
2023/10/16 00:37:27;;;;;;;;;;;;;;;18.43;59.88;98997.19;351841;28;1153;-78
2023/10/16 00:37:37;;;;;;;;;;;;;;;18.44;59.85;98999.72;351824;28;898;-78
2023/10/16 00:37:49;;;;;;;;;;;;;;;18.43;59.75;99005.16;347448;28;1278;-78
2023/10/16 00:38:03;;;;;;;;;;;;;;;18.43;59.94;98997.19;346063;28;1293;-78
2023/10/16 00:38:13;;;;;;;;;;;;;;;18.43;59.75;98998.03;347702;28;922;-78
2023/10/16 00:38:25;;;;;;;;;;;;;;;18.44;59.85;99006.81;350227;28;1195;-78
2023/10/16 00:38:37;;;;;;;;;;;;;;;18.42;59.84;98998.16;348993;28;1341;-78
2023/10/16 00:38:51;;;;;;;;;;;;;;;18.42;59.88;99003.47;349082;28;1116;-78
2023/10/16 00:39:14;;;;;;;;;;;;;;;18.44;59.79;98998.88;349696;28;1364;-78
2023/10/16 00:39:28;;;;;;;;;;;;;;;18.45;59.75;98995.25;343480;28;1352;-78
2023/10/16 00:39:38;;;;;;;;;;;;;;;18.45;59.77;98996.09;339701;29;814;-78
2023/10/16 00:39:49;;;;;;;;;;;;;;;18.45;59.80;99004.06;343161;28;1182;-78
2023/10/16 00:40:00;;;;;;;;;;;;;;;18.45;59.78;98995.25;341255;28;1313;-78
2023/10/16 00:40:11;;;;;;;;;;;;;;;18.44;59.96;99001.53;341163;28;923;-78
2023/10/16 00:40:35;;;;;;;;;;;;;;;18.40;60.01;99003.59;340660;29;1584;-78
2023/10/16 00:41:21;;;;;;;;;;;;;;;18.39;59.92;99007.22;338285;29;2335;-78
2023/10/16 00:41:31;;;;;;;;;;;;;;;18.38;59.94;99004.69;338531;28;4544;-78
2023/10/16 00:41:42;;;;;;;;;;;;;;;18.37;59.84;98997.69;340631;28;2769;-77
2023/10/16 00:41:52;;;;;;;;;;;;;;;18.38;59.88;99002.03;338571;29;2111;-77
2023/10/16 00:42:07;;;;;;;;;;;;;;;18.39;59.73;98995.75;339149;29;2448;-77
2023/10/16 00:42:18;;;;;;;;;;;;;;;18.38;59.69;98999.38;330480;29;1291;-78
2023/10/16 00:42:29;;;;;;;;;;;;;;;18.35;59.92;99002.28;333705;29;883;-78
2023/10/16 00:42:43;;;;;;;;;;;;;;;18.34;59.76;99009.38;337377;29;1301;-78
2023/10/16 00:42:53;;;;;;;;;;;;;;;18.31;59.93;98990.25;338026;29;1347;-78
2023/10/16 00:43:11;;;;;;;;;;;;;;;18.28;59.88;98989.53;338016;29;1382;-78
2023/10/16 00:43:22;;;;;;;;;;;;;;;18.31;59.73;99003.50;334523;29;838;-77
2023/10/16 00:43:33;;;;;;;;;;;;;;;18.28;59.61;98997.50;331205;29;1737;-78
2023/10/16 00:43:44;;;;;;;;;;;;;;;18.29;59.79;99000.97;331067;29;1798;-78
2023/10/16 00:43:54;;;;;;;;;;;;;;;18.32;59.70;99005.19;333128;29;783;-77
2023/10/16 00:44:05;;;;;;;;;;;;;;;18.31;59.67;98995.56;330665;29;1324;-78
2023/10/16 00:44:17;;;;;;;;;;;;;;;18.28;59.64;98994.84;327808;29;1954;-78
2023/10/16 00:44:33;;;;;;;;;;;;;;;18.26;59.70;99002.06;326129;30;1520;-78
2023/10/16 00:44:43;;;;;;;;;;;;;;;18.27;59.76;99009.06;327192;30;871;-79
2023/10/16 00:44:56;;;;;;;;;;;;;;;18.27;59.69;99003.75;331679;29;1301;-78
2023/10/16 00:45:06;;;;;;;;;;;;;;;18.29;59.71;99012.41;326292;30;1552;-78
2023/10/16 00:45:19;;;;;;;;;;;;;;;18.27;59.78;99014.34;325388;30;1962;-78
2023/10/16 00:45:29;;;;;;;;;;;;;;;18.24;59.73;99014.59;327077;30;2101;-78
2023/10/16 00:45:45;;;;;;;;;;;;;;;18.25;59.94;99004.84;328338;30;2364;-78
2023/10/16 00:46:14;;;;;;;;;;;;;;;18.27;59.71;99009.06;324177;30;2159;-78
2023/10/16 00:46:29;;;;;;;;;;;;;;;18.31;59.71;99003.50;325375;30;2564;-78
2023/10/16 00:46:44;;;;;;;;;;;;;;;18.29;59.54;99012.41;324319;30;1759;-78
2023/10/16 00:46:54;;;;;;;;;;;;;;;18.27;59.72;99014.34;325580;30;1371;-78
2023/10/16 00:47:05;;;;;;;;;;;;;;;18.27;59.61;99003.75;322198;30;860;-77
2023/10/16 00:47:15;;;;;;;;;;;;;;;18.23;59.58;98996.19;322700;30;1939;-77
2023/10/16 00:47:25;;;;;;;;;;;;;;;18.22;59.62;99003.28;323111;30;2694;-78
2023/10/16 00:47:39;;;;;;;;;;;;;;;18.21;59.53;99009.56;324970;30;1136;-78
2023/10/16 00:47:50;;;;;;;;;;;;;;;18.21;59.68;99006.06;323412;30;923;-78
2023/10/16 00:48:01;;;;;;;;;;;;;;;18.20;59.59;99012.31;322507;30;3152;-78
2023/10/16 00:48:15;;;;;;;;;;;;;;;18.19;59.56;99005.38;318357;30;2904;-78
2023/10/16 00:48:25;;;;;;;;;;;;;;;18.16;59.55;99009.13;317238;30;3230;-78
2023/10/16 00:48:37;;;;;;;;;;;;;;;18.18;59.64;99003.69;322159;30;1304;-78
2023/10/16 00:48:47;;;;;;;;;;;;;;;18.19;59.60;99000.91;322359;30;3217;-78
2023/10/16 00:48:58;;;;;;;;;;;;;;;18.20;59.60;98991.13;320451;30;2392;-78
2023/10/16 00:49:11;;;;;;;;;;;;;;;18.21;59.59;99004.25;319890;30;857;-78
2023/10/16 00:49:23;;;;;;;;;;;;;;;18.22;59.49;99000.63;316939;31;1152;-78
2023/10/16 00:49:41;;;;;;;;;;;;;;;18.18;59.54;98995.75;314464;30;3660;-78
2023/10/16 00:49:51;;;;;;;;;;;;;;;18.17;59.47;98996.72;317565;31;1239;-78
2023/10/16 00:50:03;;;;;;;;;;;;;;;18.15;59.51;99004.78;310695;31;5551;-78
2023/10/16 00:50:14;;;;;;;;;;;;;;;18.15;59.50;99004.78;306693;31;4804;-78
2023/10/16 00:50:24;;;;;;;;;;;;;;;18.16;59.59;99005.63;308567;32;1382;-78
2023/10/16 00:50:34;;;;;;;;;;;;;;;18.16;59.57;98995.88;308658;31;4692;-78
2023/10/16 00:50:45;;;;;;;;;;;;;;;18.15;59.61;98996.84;307183;31;4433;-78
2023/10/16 00:50:55;;;;;;;;;;;;;;;18.16;59.56;99001.16;308216;31;4563;-78
2023/10/16 00:51:09;;;;;;;;;;;;;;;18.16;59.60;98998.53;305339;32;3586;-78
2023/10/16 00:51:21;;;;;;;;;;;;;;;18.20;59.55;99004.38;302355;32;864;-79
2023/10/16 00:51:40;;;;;;;;;;;;;;;18.20;59.34;98999.91;302724;32;3431;-78
2023/10/16 00:51:50;;;;;;;;;;;;;;;18.23;59.42;99001.47;298970;32;1442;-78
2023/10/16 00:52:03;;;;;;;;;;;;;;;18.24;59.33;99008.47;298201;32;5927;-78
2023/10/16 00:52:14;;;;;;;;;;;;;;;18.25;59.11;99005.69;296568;33;7342;-78
2023/10/16 00:52:25;;;;;;;;;;;;;;;18.26;59.37;99007.38;292946;33;6756;-78
2023/10/16 00:52:35;;;;;;;;;;;;;;;18.25;59.30;98994.25;293302;33;1037;-78
2023/10/16 00:52:46;;;;;;;;;;;;;;;18.23;59.27;99002.31;289756;33;6780;-78
2023/10/16 00:52:58;;;;;;;;;;;;;;;18.21;59.28;99009.56;289607;33;6052;-78
2023/10/16 00:53:08;;;;;;;;;;;;;;;18.20;59.21;99012.31;293192;33;858;-78
2023/10/16 00:53:22;;;;;;;;;;;;;;;18.14;59.39;99003.09;292028;33;6203;-78
2023/10/16 00:53:32;;;;;;;;;;;;;;;18.12;59.44;98999.72;293879;33;4730;-78
2023/10/16 00:53:42;;;;;;;;;;;;;;;18.13;59.53;99017.31;293051;33;5303;-78
2023/10/16 00:53:53;;;;;;;;;;;;;;;18.14;59.49;99005.75;291265;34;1450;-78
2023/10/16 00:54:04;;;;;;;;;;;;;;;18.14;59.19;99011.03;287245;33;6585;-78
2023/10/16 00:54:28;;;;;;;;;;;;;;;18.14;59.31;99008.41;286873;33;8251;-78
2023/10/16 00:54:39;;;;;;;;;;;;;;;18.13;59.57;99022.59;287473;34;829;-78
2023/10/16 00:54:49;;;;;;;;;;;;;;;18.14;59.35;99026.94;284803;34;9624;-78
2023/10/16 00:55:00;;;;;;;;;;;;;;;18.09;59.48;99015.88;287524;33;10292;-78
2023/10/16 00:57:27;;;;;;;;;;;;;;;18.05;59.54;99014.44;2499388;27;19933;-79
2023/10/16 00:57:39;;;;;;;;;;;;;;;18.04;59.49;99026.00;353082;28;1380;-78
2023/10/16 00:57:49;;;;;;;;;;;;;;;18.04;59.54;99015.41;351883;28;1298;-78
2023/10/16 00:58:00;;;;;;;;;;;;;;;18.07;59.50;99028.41;348883;28;1234;-78
2023/10/16 00:58:10;;;;;;;;;;;;;;;18.09;59.45;99021.16;347623;28;999;-78
2023/10/16 00:58:20;;;;;;;;;;;;;;;18.09;59.47;99023.81;347649;28;935;-78
2023/10/16 00:58:31;;;;;;;;;;;;;;;18.09;59.44;99020.31;350343;28;1223;-78
2023/10/16 00:58:42;;;;;;;;;;;;;;;18.08;59.41;99023.94;349550;28;1332;-78
2023/10/16 00:58:52;;;;;;;;;;;;;;;18.09;59.46;99031.75;349077;28;852;-78
2023/10/16 00:59:04;;;;;;;;;;;;;;;18.09;59.27;99021.16;347431;28;1308;-78
2023/10/16 00:59:17;;;;;;;;;;;;;;;18.09;59.26;99021.16;346825;28;1279;-78
2023/10/16 00:59:31;;;;;;;;;;;;;;;18.11;59.30;99029.84;349021;28;1337;-78
2023/10/16 00:59:42;;;;;;;;;;;;;;;18.09;59.31;99023.81;351764;28;1417;-78
2023/10/16 00:59:53;;;;;;;;;;;;;;;18.10;59.41;99022.00;350693;28;2296;-78
2023/10/16 01:00:12;;;;;;;;;;;;;;;18.09;59.36;99030.91;349212;28;4258;-77
2023/10/16 01:00:22;;;;;;;;;;;;;;;18.10;59.20;99033.44;348908;28;4766;-79
2023/10/16 01:00:36;;;;;;;;;;;;;;;18.12;59.10;99036.81;354146;27;4936;-78
2023/10/16 01:00:46;;;;;;;;;;;;;;;18.13;59.25;99019.97;351726;28;883;-78
2023/10/16 01:00:57;;;;;;;;;;;;;;;18.14;59.08;99032.22;350113;28;2832;-78
2023/10/16 01:01:09;;;;;;;;;;;;;;;18.10;59.13;99022.84;348973;28;1291;-78
2023/10/16 01:01:19;;;;;;;;;;;;;;;18.06;59.30;99033.81;347807;28;1107;-79
2023/10/16 01:01:31;;;;;;;;;;;;;;;18.05;59.29;99025.03;347945;28;777;-78
2023/10/16 01:01:43;;;;;;;;;;;;;;;18.06;59.42;99037.31;348905;28;1578;-78
2023/10/16 01:02:30;;;;;;;;;;;;;;;18.05;59.21;99030.31;346419;28;726;-78
2023/10/16 01:02:41;;;;;;;;;;;;;;;18.04;59.39;99049.84;347708;28;899;-78
2023/10/16 01:02:51;;;;;;;;;;;;;;;18.04;59.27;99039.25;347639;28;1445;-78
2023/10/16 01:03:04;;;;;;;;;;;;;;;18.04;59.20;99036.59;349455;28;1278;-78
2023/10/16 01:03:20;;;;;;;;;;;;;;;18.00;59.20;99027.22;346910;28;1316;-78
2023/10/16 01:03:32;;;;;;;;;;;;;;;18.00;59.26;99034.31;344871;28;889;-78
2023/10/16 01:03:44;;;;;;;;;;;;;;;18.02;59.14;99041.16;339490;28;1336;-78
2023/10/16 01:03:57;;;;;;;;;;;;;;;18.03;59.15;99042.00;342079;28;1390;-78
2023/10/16 01:04:08;;;;;;;;;;;;;;;18.03;59.21;99032.25;340799;29;1376;-78
2023/10/16 01:04:19;;;;;;;;;;;;;;;18.02;59.09;99030.56;342060;28;1295;-78
2023/10/16 01:04:30;;;;;;;;;;;;;;;18.00;59.17;99043.09;339934;29;1407;-78
2023/10/16 01:04:40;;;;;;;;;;;;;;;17.99;59.19;99024.69;340756;29;1293;-78
2023/10/16 01:04:52;;;;;;;;;;;;;;;17.96;59.10;99031.06;339339;29;1186;-78
2023/10/16 01:05:03;;;;;;;;;;;;;;;17.97;59.16;99039.84;343206;28;845;-78
2023/10/16 01:05:18;;;;;;;;;;;;;;;17.97;58.98;99032.75;341216;28;1328;-78
2023/10/16 01:05:29;;;;;;;;;;;;;;;17.97;59.03;99032.75;335246;29;1436;-78
2023/10/16 01:05:42;;;;;;;;;;;;;;;18.00;58.99;99051.03;335719;29;1346;-78
2023/10/16 01:05:52;;;;;;;;;;;;;;;18.00;58.86;99044.91;338642;29;2457;-79
2023/10/16 01:06:03;;;;;;;;;;;;;;;17.99;58.69;99016.75;339554;29;1652;-78
2023/10/16 01:06:24;;;;;;;;;;;;;;;17.95;58.82;99029.38;339428;29;1991;-77
2023/10/16 01:06:40;;;;;;;;;;;;;;;17.95;58.83;99032.88;337198;29;2110;-78
2023/10/16 01:06:51;;;;;;;;;;;;;;;17.97;58.88;99042.50;337991;29;1355;-78
2023/10/16 01:07:01;;;;;;;;;;;;;;;17.98;58.82;99039.72;336190;29;1231;-78
2023/10/16 01:07:14;;;;;;;;;;;;;;;17.97;58.95;99038.03;337778;29;1324;-78
2023/10/16 01:07:24;;;;;;;;;;;;;;;17.92;58.75;99019.88;333074;29;1375;-78
2023/10/16 01:07:36;;;;;;;;;;;;;;;17.91;58.88;99038.53;332594;29;1788;-78
2023/10/16 01:07:46;;;;;;;;;;;;;;;17.90;58.89;99036.84;333841;29;1819;-78
2023/10/16 01:07:58;;;;;;;;;;;;;;;17.90;59.01;99043.00;333036;29;1185;-78
2023/10/16 01:08:09;;;;;;;;;;;;;;;17.89;58.89;99040.47;330622;29;863;-78
2023/10/16 01:08:19;;;;;;;;;;;;;;;17.89;58.84;99035.16;331064;29;2222;-78
2023/10/16 01:08:29;;;;;;;;;;;;;;;17.90;58.79;99039.50;331003;29;3005;-79
2023/10/16 01:08:43;;;;;;;;;;;;;;;17.89;58.97;99043.09;332714;29;1253;-79
2023/10/16 01:08:55;;;;;;;;;;;;;;;17.92;58.95;99034.91;329365;29;3800;-79
2023/10/16 01:09:08;;;;;;;;;;;;;;;17.94;58.95;99039.13;331533;29;2524;-79
2023/10/16 01:09:33;;;;;;;;;;;;;;;17.96;58.89;99041.66;330837;29;1596;-78
2023/10/16 01:09:46;;;;;;;;;;;;;;;18.00;58.80;99047.56;325821;30;2285;-78
2023/10/16 01:09:59;;;;;;;;;;;;;;;17.98;58.71;99028.28;329313;30;1088;-78
2023/10/16 01:10:10;;;;;;;;;;;;;;;17.99;58.80;99041.41;329269;30;1452;-78
2023/10/16 01:10:22;;;;;;;;;;;;;;;17.97;58.76;99038.03;331197;29;2603;-78
2023/10/16 01:10:32;;;;;;;;;;;;;;;17.98;58.71;99050.31;329351;29;2616;-78
2023/10/16 01:10:47;;;;;;;;;;;;;;;17.96;58.58;99041.66;326461;30;1739;-78
2023/10/16 01:10:57;;;;;;;;;;;;;;;17.92;58.63;99029.63;324446;30;1120;-79
2023/10/16 01:11:09;;;;;;;;;;;;;;;17.91;58.95;99043.81;326936;30;920;-78
2023/10/16 01:11:19;;;;;;;;;;;;;;;17.91;58.99;99043.81;324985;30;1990;-78
2023/10/16 01:11:29;;;;;;;;;;;;;;;17.91;58.88;99046.47;321130;30;2251;-78
2023/10/16 01:11:39;;;;;;;;;;;;;;;17.91;58.82;99036.72;319810;30;1188;-78
2023/10/16 01:11:50;;;;;;;;;;;;;;;17.92;58.79;99045.50;323922;30;2511;-78
2023/10/16 01:12:00;;;;;;;;;;;;;;;17.93;58.82;99042.75;321992;30;2759;-78
2023/10/16 01:12:11;;;;;;;;;;;;;;;17.94;58.74;99038.28;319597;30;1419;-78
2023/10/16 01:12:22;;;;;;;;;;;;;;;17.90;58.74;99047.44;320713;30;3340;-78